sensor_id;sensor_type;location;lat;lon;timestamp;pressure;altitude;pressure_sealevel;temperature;humidity
65359;BME280;52491;45.900;6.346;2023-01-27T00:01:51;93459.59;;;22.99;21.45
65359;BME280;52491;45.900;6.346;2023-01-27T00:04:16;93456.41;;;22.97;21.24
65359;BME280;52491;45.900;6.346;2023-01-27T00:06:42;93455.31;;;22.98;21.29
65359;BME280;52491;45.900;6.346;2023-01-27T00:09:08;93455.31;;;22.98;21.21
65359;BME280;52491;45.900;6.346;2023-01-27T00:11:33;93443.88;;;22.98;21.29
65359;BME280;52491;45.900;6.346;2023-01-27T00:14:18;93448.91;;;22.94;21.20
65359;BME280;52491;45.900;6.346;2023-01-27T00:16:43;93439.91;;;22.95;21.14
65359;BME280;52491;45.900;6.346;2023-01-27T00:19:09;93446.25;;;22.94;21.30
65359;BME280;52491;45.900;6.346;2023-01-27T00:21:34;93445.47;;;22.94;21.07
65359;BME280;52491;45.900;6.346;2023-01-27T00:24:19;93441.47;;;22.91;21.06
65359;BME280;52491;45.900;6.346;2023-01-27T00:27:04;93440.94;;;22.89;20.93
65359;BME280;52491;45.900;6.346;2023-01-27T00:29:34;93440.13;;;22.89;21.11
65359;BME280;52491;45.900;6.346;2023-01-27T00:32:00;93434.03;;;22.88;21.05
65359;BME280;52491;45.900;6.346;2023-01-27T00:34:44;93436.94;;;22.87;21.09
65359;BME280;52491;45.900;6.346;2023-01-27T00:37:10;93431.63;;;22.87;20.96
65359;BME280;52491;45.900;6.346;2023-01-27T00:39:35;93438.00;;;22.86;21.05
65359;BME280;52491;45.900;6.346;2023-01-27T00:42:02;93438.81;;;22.86;20.87
65359;BME280;52491;45.900;6.346;2023-01-27T00:44:27;93435.34;;;22.86;20.89
65359;BME280;52491;45.900;6.346;2023-01-27T00:46:53;93443.56;;;22.84;20.92
65359;BME280;52491;45.900;6.346;2023-01-27T00:49:19;93444.66;;;22.83;21.00
65359;BME280;52491;45.900;6.346;2023-01-27T00:51:44;93443.03;;;22.82;20.88
65359;BME280;52491;45.900;6.346;2023-01-27T00:54:10;93438.00;;;22.81;20.94
65359;BME280;52491;45.900;6.346;2023-01-27T00:56:36;93443.31;;;22.81;20.86
65359;BME280;52491;45.900;6.346;2023-01-27T00:59:02;93439.84;;;22.80;20.58
65359;BME280;52491;45.900;6.346;2023-01-27T01:01:28;93438.78;;;22.81;20.88
65359;BME280;52491;45.900;6.346;2023-01-27T01:03:54;93440.66;;;22.81;20.89
65359;BME280;52491;45.900;6.346;2023-01-27T01:06:20;93435.34;;;22.81;20.91
65359;BME280;52491;45.900;6.346;2023-01-27T01:08:46;93435.34;;;22.81;20.84
65359;BME280;52491;45.900;6.346;2023-01-27T01:11:14;93432.94;;;22.79;20.78
65359;BME280;52491;45.900;6.346;2023-01-27T01:13:41;93433.72;;;22.79;20.60
65359;BME280;52491;45.900;6.346;2023-01-27T01:16:14;93428.94;;;22.82;20.42
65359;BME280;52491;45.900;6.346;2023-01-27T01:18:41;93432.94;;;22.79;20.63
65359;BME280;52491;45.900;6.346;2023-01-27T01:21:07;93432.13;;;22.78;20.69
65359;BME280;52491;45.900;6.346;2023-01-27T01:23:37;93436.38;;;22.79;20.95
65359;BME280;52491;45.900;6.346;2023-01-27T01:26:03;93436.91;;;22.76;20.57
65359;BME280;52491;45.900;6.346;2023-01-27T01:28:29;93438.53;;;22.77;20.64
65359;BME280;52491;45.900;6.346;2023-01-27T01:30:54;93437.72;;;22.77;20.62
65359;BME280;52491;45.900;6.346;2023-01-27T01:33:21;93439.56;;;22.76;20.73
65359;BME280;52491;45.900;6.346;2023-01-27T01:35:47;93442.50;;;22.75;20.74
65359;BME280;52491;45.900;6.346;2023-01-27T01:38:13;93443.03;;;22.77;20.61
65359;BME280;52491;45.900;6.346;2023-01-27T01:40:42;93437.72;;;22.77;20.67
65359;BME280;52491;45.900;6.346;2023-01-27T01:43:16;93426.28;;;22.76;20.56
65359;BME280;52491;45.900;6.346;2023-01-27T01:45:49;93429.75;;;22.77;20.55
65359;BME280;52491;45.900;6.346;2023-01-27T01:50:54;93420.97;;;22.76;20.52
65359;BME280;52491;45.900;6.346;2023-01-27T01:53:24;93426.28;;;22.76;20.44
65359;BME280;52491;45.900;6.346;2023-01-27T01:55:55;93425.47;;;22.76;20.45
65359;BME280;52491;45.900;6.346;2023-01-27T01:58:22;93420.44;;;22.74;20.57
65359;BME280;52491;45.900;6.346;2023-01-27T02:00:49;93413.25;;;22.75;20.47
65359;BME280;52491;45.900;6.346;2023-01-27T02:03:15;93418.59;;;22.75;20.66
65359;BME280;52491;45.900;6.346;2023-01-27T02:05:42;93409.00;;;22.74;20.50
65359;BME280;52491;45.900;6.346;2023-01-27T02:08:16;93417.50;;;22.76;20.44
65359;BME280;52491;45.900;6.346;2023-01-27T02:10:44;93414.84;;;22.71;20.43
65359;BME280;52491;45.900;6.346;2023-01-27T02:13:10;93411.66;;;22.74;20.40
65359;BME280;52491;45.900;6.346;2023-01-27T02:15:37;93411.66;;;22.74;20.31
65359;BME280;52491;45.900;6.346;2023-01-27T02:18:03;93399.19;;;22.74;20.23
65359;BME280;52491;45.900;6.346;2023-01-27T02:20:40;93402.63;;;22.75;20.16
65359;BME280;52491;45.900;6.346;2023-01-27T02:28:35;93396.00;;;22.72;20.46
65359;BME280;52491;45.900;6.346;2023-01-27T02:31:01;93387.75;;;22.74;20.41
65359;BME280;52491;45.900;6.346;2023-01-27T02:33:27;93388.00;;;22.72;20.33
65359;BME280;52491;45.900;6.346;2023-01-27T02:36:16;93385.91;;;22.74;20.24
65359;BME280;52491;45.900;6.346;2023-01-27T02:38:52;93385.91;;;22.74;20.25
65359;BME280;52491;45.900;6.346;2023-01-27T02:43:53;93392.81;;;22.75;20.22
65359;BME280;52491;45.900;6.346;2023-01-27T02:46:19;93393.59;;;22.76;20.16
65359;BME280;52491;45.900;6.346;2023-01-27T02:48:45;93382.97;;;22.76;20.33
65359;BME280;52491;45.900;6.346;2023-01-27T02:51:11;93386.69;;;22.75;20.42
65359;BME280;52491;45.900;6.346;2023-01-27T02:53:36;93377.66;;;22.76;20.29
65359;BME280;52491;45.900;6.346;2023-01-27T02:56:03;93378.72;;;22.75;20.27
65359;BME280;52491;45.900;6.346;2023-01-27T02:58:29;93376.84;;;22.75;20.33
65359;BME280;52491;45.900;6.346;2023-01-27T03:00:54;93384.03;;;22.75;20.21
65359;BME280;52491;45.900;6.346;2023-01-27T03:03:20;93378.72;;;22.75;20.17
65359;BME280;52491;45.900;6.346;2023-01-27T03:05:46;93378.72;;;22.75;20.06
65359;BME280;52491;45.900;6.346;2023-01-27T03:08:12;93376.06;;;22.75;20.21
65359;BME280;52491;45.900;6.346;2023-01-27T03:10:37;93371.53;;;22.75;20.28
65359;BME280;52491;45.900;6.346;2023-01-27T03:13:03;93369.97;;;22.74;20.08
65359;BME280;52491;45.900;6.346;2023-01-27T03:15:29;93373.41;;;22.75;20.00
65359;BME280;52491;45.900;6.346;2023-01-27T03:18:13;93373.41;;;22.75;20.13
65359;BME280;52491;45.900;6.346;2023-01-27T03:20:46;93373.13;;;22.76;20.22
65359;BME280;52491;45.900;6.346;2023-01-27T03:23:13;93385.63;;;22.76;20.24
65359;BME280;52491;45.900;6.346;2023-01-27T03:25:43;93388.28;;;22.76;20.11
65359;BME280;52491;45.900;6.346;2023-01-27T03:28:10;93378.72;;;22.75;20.17
65359;BME280;52491;45.900;6.346;2023-01-27T03:30:37;93377.94;;;22.74;20.24
65359;BME280;52491;45.900;6.346;2023-01-27T03:33:03;93382.41;;;22.74;20.33
65359;BME280;52491;45.900;6.346;2023-01-27T03:35:31;93372.63;;;22.74;20.16
65359;BME280;52491;45.900;6.346;2023-01-27T03:38:11;93373.41;;;22.75;20.13
65359;BME280;52491;45.900;6.346;2023-01-27T03:40:55;93377.94;;;22.74;20.12
65359;BME280;52491;45.900;6.346;2023-01-27T03:43:39;93368.34;;;22.73;20.21
65359;BME280;52491;45.900;6.346;2023-01-27T03:46:23;93365.97;;;22.72;20.16
65359;BME280;52491;45.900;6.346;2023-01-27T03:48:54;93363.81;;;22.74;20.28
65359;BME280;52491;45.900;6.346;2023-01-27T03:51:22;93373.66;;;22.73;20.29
65359;BME280;52491;45.900;6.346;2023-01-27T03:53:48;93368.34;;;22.73;20.27
65359;BME280;52491;45.900;6.346;2023-01-27T03:56:15;93363.81;;;22.74;20.21
65359;BME280;52491;45.900;6.346;2023-01-27T03:58:42;93363.56;;;22.75;20.06
65359;BME280;52491;45.900;6.346;2023-01-27T04:01:21;93362.50;;;22.76;20.25
65359;BME280;52491;45.900;6.346;2023-01-27T04:03:48;93365.69;;;22.73;20.17
65359;BME280;52491;45.900;6.346;2023-01-27T04:06:35;93361.97;;;22.74;20.19
65359;BME280;52491;45.900;6.346;2023-01-27T04:09:33;93369.13;;;22.74;20.23
65359;BME280;52491;45.900;6.346;2023-01-27T04:12:03;93366.22;;;22.70;20.28
65359;BME280;52491;45.900;6.346;2023-01-27T04:14:31;93371.28;;;22.72;20.25
65359;BME280;52491;45.900;6.346;2023-01-27T04:17:12;93372.88;;;22.73;20.18
65359;BME280;52491;45.900;6.346;2023-01-27T04:19:39;93370.50;;;22.71;20.19
65359;BME280;52491;45.900;6.346;2023-01-27T04:22:05;93367.56;;;22.73;20.22
65359;BME280;52491;45.900;6.346;2023-01-27T04:24:31;93372.31;;;22.71;20.18
65359;BME280;52491;45.900;6.346;2023-01-27T04:27:06;93375.28;;;22.74;20.25
65359;BME280;52491;45.900;6.346;2023-01-27T04:29:34;93376.59;;;22.72;20.25
65359;BME280;52491;45.900;6.346;2023-01-27T04:32:00;93371.78;;;22.74;20.16
65359;BME280;52491;45.900;6.346;2023-01-27T04:34:28;93368.09;;;22.75;20.23
65359;BME280;52491;45.900;6.346;2023-01-27T04:36:54;93360.66;;;22.77;20.05
65359;BME280;52491;45.900;6.346;2023-01-27T04:39:20;93355.34;;;22.77;20.00
65359;BME280;52491;45.900;6.346;2023-01-27T04:41:47;93355.84;;;22.79;20.37
65359;BME280;52491;45.900;6.346;2023-01-27T04:44:14;93360.13;;;22.80;19.90
65359;BME280;52491;45.900;6.346;2023-01-27T04:46:39;93357.19;;;22.82;19.89
65359;BME280;52491;45.900;6.346;2023-01-27T04:49:06;93357.19;;;22.82;19.96
65359;BME280;52491;45.900;6.346;2023-01-27T04:51:32;93354.53;;;22.82;20.26
65359;BME280;52491;45.900;6.346;2023-01-27T04:53:58;93351.88;;;22.82;20.07
65359;BME280;52491;45.900;6.346;2023-01-27T04:58:50;93351.63;;;22.83;20.11
65359;BME280;52491;45.900;6.346;2023-01-27T05:01:16;93349.75;;;22.84;20.21
65359;BME280;52491;45.900;6.346;2023-01-27T05:03:41;93362.75;;;22.85;20.04
65359;BME280;52491;45.900;6.346;2023-01-27T05:06:09;93358.28;;;22.86;19.96
65359;BME280;52491;45.900;6.346;2023-01-27T05:08:35;93360.09;;;22.85;20.29
65359;BME280;52491;45.900;6.346;2023-01-27T05:11:00;93357.72;;;22.84;20.10
65359;BME280;52491;45.900;6.346;2023-01-27T05:13:26;93362.75;;;22.85;20.03
65359;BME280;52491;45.900;6.346;2023-01-27T05:16:05;93362.50;;;22.87;20.06
65359;BME280;52491;45.900;6.346;2023-01-27T05:18:31;93360.09;;;22.85;20.11
65359;BME280;52491;45.900;6.346;2023-01-27T05:20:59;93363.06;;;22.89;20.15
65359;BME280;52491;45.900;6.346;2023-01-27T05:23:27;93370.75;;;22.90;20.15
65359;BME280;52491;45.900;6.346;2023-01-27T05:26:07;93360.91;;;22.91;20.15
65359;BME280;52491;45.900;6.346;2023-01-27T05:28:34;93362.53;;;22.92;20.18
65359;BME280;52491;45.900;6.346;2023-01-27T05:31:02;93359.59;;;22.93;20.23
65359;BME280;52491;45.900;6.346;2023-01-27T05:33:29;93356.41;;;22.91;20.08
65359;BME280;52491;45.900;6.346;2023-01-27T05:35:57;93358.00;;;22.92;20.15
65359;BME280;52491;45.900;6.346;2023-01-27T05:38:23;93360.66;;;22.92;20.10
65359;BME280;52491;45.900;6.346;2023-01-27T05:40:53;93354.84;;;22.95;20.08
65359;BME280;52491;45.900;6.346;2023-01-27T05:43:19;93345.25;;;22.94;20.08
65359;BME280;52491;45.900;6.346;2023-01-27T05:45:45;93350.56;;;22.94;20.18
65359;BME280;52491;45.900;6.346;2023-01-27T05:48:10;93351.94;;;22.97;20.11
65359;BME280;52491;45.900;6.346;2023-01-27T05:50:36;93347.41;;;22.97;20.09
65359;BME280;52491;45.900;6.346;2023-01-27T05:53:01;93351.38;;;23.00;20.12
65359;BME280;52491;45.900;6.346;2023-01-27T05:55:27;93352.19;;;23.00;20.08
65359;BME280;52491;45.900;6.346;2023-01-27T05:57:53;93349.25;;;23.02;20.01
65359;BME280;52491;45.900;6.346;2023-01-27T06:00:19;93355.38;;;23.03;20.12
65359;BME280;52491;45.900;6.346;2023-01-27T06:02:45;93356.16;;;23.03;20.01
65359;BME280;52491;45.900;6.346;2023-01-27T06:05:10;93351.66;;;23.04;20.25
65359;BME280;52491;45.900;6.346;2023-01-27T06:07:36;93351.13;;;23.07;20.23
65359;BME280;52491;45.900;6.346;2023-01-27T06:10:03;93350.31;;;23.06;20.17
65359;BME280;52491;45.900;6.346;2023-01-27T06:12:30;93350.31;;;23.06;20.26
65359;BME280;52491;45.900;6.346;2023-01-27T06:14:55;93347.66;;;23.11;20.17
65359;BME280;52491;45.900;6.346;2023-01-27T06:17:24;93351.13;;;23.12;20.33
65359;BME280;52491;45.900;6.346;2023-01-27T06:19:50;93354.84;;;23.11;20.32
65359;BME280;52491;45.900;6.346;2023-01-27T06:22:15;93350.03;;;23.13;20.39
65359;BME280;52491;45.900;6.346;2023-01-27T06:24:41;93348.44;;;23.12;20.32
65359;BME280;52491;45.900;6.346;2023-01-27T06:27:07;93349.78;;;23.14;20.41
65359;BME280;52491;45.900;6.346;2023-01-27T06:29:32;93349.50;;;23.16;20.38
65359;BME280;52491;45.900;6.346;2023-01-27T06:31:58;93352.69;;;23.18;20.46
65359;BME280;52491;45.900;6.346;2023-01-27T06:34:23;93358.81;;;23.18;20.42
65359;BME280;52491;45.900;6.346;2023-01-27T06:36:52;93361.47;;;23.18;20.50
65359;BME280;52491;45.900;6.346;2023-01-27T06:39:19;93353.78;;;23.17;20.52
65359;BME280;52491;45.900;6.346;2023-01-27T06:41:45;93364.13;;;23.18;20.57
65359;BME280;52491;45.900;6.346;2023-01-27T06:44:10;93364.13;;;23.18;20.49
65359;BME280;52491;45.900;6.346;2023-01-27T06:46:36;93366.00;;;23.18;20.52
65359;BME280;52491;45.900;6.346;2023-01-27T06:49:01;93358.31;;;23.16;20.47
65359;BME280;52491;45.900;6.346;2023-01-27T06:51:27;93360.69;;;23.18;20.53
65359;BME280;52491;45.900;6.346;2023-01-27T06:53:53;93364.13;;;23.18;20.49
65359;BME280;52491;45.900;6.346;2023-01-27T06:56:18;93361.22;;;23.20;20.49
65359;BME280;52491;45.900;6.346;2023-01-27T06:58:44;93369.19;;;23.20;20.51
65359;BME280;52491;45.900;6.346;2023-01-27T07:01:10;93374.50;;;23.20;20.45
65359;BME280;52491;45.900;6.346;2023-01-27T07:03:35;93376.38;;;23.19;20.43
65359;BME280;52491;45.900;6.346;2023-01-27T07:06:01;93370.25;;;23.19;20.48
65359;BME280;52491;45.900;6.346;2023-01-27T07:08:26;93373.44;;;23.21;20.46
65359;BME280;52491;45.900;6.346;2023-01-27T07:10:52;93373.44;;;23.21;20.41
65359;BME280;52491;45.900;6.346;2023-01-27T07:13:18;93376.09;;;23.21;20.58
65359;BME280;52491;45.900;6.346;2023-01-27T07:15:43;93369.72;;;23.22;20.48
65359;BME280;52491;45.900;6.346;2023-01-27T07:18:12;93373.97;;;23.23;20.42
65359;BME280;52491;45.900;6.346;2023-01-27T07:20:39;93371.31;;;23.23;20.65
65359;BME280;52491;45.900;6.346;2023-01-27T07:23:05;93372.63;;;23.20;20.71
65359;BME280;52491;45.900;6.346;2023-01-27T07:25:32;93368.13;;;23.21;20.87
65359;BME280;52491;45.900;6.346;2023-01-27T07:28:00;93373.72;;;23.19;20.98
65359;BME280;52491;45.900;6.346;2023-01-27T07:30:26;93382.50;;;23.20;21.10
65359;BME280;52491;45.900;6.346;2023-01-27T07:32:52;93383.28;;;23.20;20.96
65359;BME280;52491;45.900;6.346;2023-01-27T07:35:20;93387.81;;;23.20;20.87
65359;BME280;52491;45.900;6.346;2023-01-27T07:37:46;93385.69;;;23.22;20.91
65359;BME280;52491;45.900;6.346;2023-01-27T07:40:12;93384.06;;;23.21;21.05
65359;BME280;52491;45.900;6.346;2023-01-27T07:42:38;93387.00;;;23.19;21.03
65359;BME280;52491;45.900;6.346;2023-01-27T07:45:05;93376.63;;;23.18;20.93
65359;BME280;52491;45.900;6.346;2023-01-27T07:47:31;93384.88;;;23.16;21.16
65359;BME280;52491;45.900;6.346;2023-01-27T07:49:56;93383.03;;;23.17;21.10
65359;BME280;52491;45.900;6.346;2023-01-27T07:52:22;93385.94;;;23.15;21.16
65359;BME280;52491;45.900;6.346;2023-01-27T07:54:48;93391.53;;;23.14;21.16
65359;BME280;52491;45.900;6.346;2023-01-27T07:57:13;93388.34;;;23.12;21.03
65359;BME280;52491;45.900;6.346;2023-01-27T07:59:39;93381.44;;;23.11;21.18
65359;BME280;52491;45.900;6.346;2023-01-27T08:02:04;93383.03;;;23.12;21.23
65359;BME280;52491;45.900;6.346;2023-01-27T08:04:30;93392.59;;;23.13;21.14
65359;BME280;52491;45.900;6.346;2023-01-27T08:06:56;93384.59;;;23.13;21.08
65359;BME280;52491;45.900;6.346;2023-01-27T08:09:22;93383.56;;;23.14;21.05
65359;BME280;52491;45.900;6.346;2023-01-27T08:11:47;93382.75;;;23.13;21.01
65359;BME280;52491;45.900;6.346;2023-01-27T08:14:13;93381.16;;;23.12;20.99
65359;BME280;52491;45.900;6.346;2023-01-27T08:16:38;93381.16;;;23.12;20.87
65359;BME280;52491;45.900;6.346;2023-01-27T08:19:04;93381.16;;;23.12;20.86
65359;BME280;52491;45.900;6.346;2023-01-27T08:21:29;93383.81;;;23.12;20.84
65359;BME280;52491;45.900;6.346;2023-01-27T08:23:58;93388.34;;;23.12;20.49
65359;BME280;52491;45.900;6.346;2023-01-27T08:26:25;93379.03;;;23.09;20.29
65359;BME280;52491;45.900;6.346;2023-01-27T08:31:16;93389.41;;;23.00;20.29
65359;BME280;52491;45.900;6.346;2023-01-27T08:33:48;93387.81;;;22.99;20.27
65359;BME280;52491;45.900;6.346;2023-01-27T08:36:16;93391.53;;;22.98;20.46
65359;BME280;52491;45.900;6.346;2023-01-27T08:38:43;93388.31;;;22.96;20.57
65359;BME280;52491;45.900;6.346;2023-01-27T08:41:14;93387.28;;;22.97;20.73
65359;BME280;52491;45.900;6.346;2023-01-27T08:43:41;93397.91;;;22.97;20.71
65359;BME280;52491;45.900;6.346;2023-01-27T08:46:07;93389.94;;;22.97;20.86
65359;BME280;52491;45.900;6.346;2023-01-27T08:48:34;93397.38;;;22.95;20.87
65359;BME280;52491;45.900;6.346;2023-01-27T08:51:01;93396.53;;;22.95;20.83
65359;BME280;52491;45.900;6.346;2023-01-27T08:53:27;93398.66;;;22.93;20.85
65359;BME280;52491;45.900;6.346;2023-01-27T08:55:55;93390.44;;;22.94;20.91
65359;BME280;52491;45.900;6.346;2023-01-27T08:58:21;93389.13;;;22.97;21.12
65359;BME280;52491;45.900;6.346;2023-01-27T09:00:47;93395.50;;;22.96;21.13
65359;BME280;52491;45.900;6.346;2023-01-27T09:03:13;93399.19;;;22.95;21.18
65359;BME280;52491;45.900;6.346;2023-01-27T09:05:39;93397.38;;;22.95;21.36
65359;BME280;52491;45.900;6.346;2023-01-27T09:08:06;93400.56;;;22.97;21.19
65359;BME280;52491;45.900;6.346;2023-01-27T09:10:36;93404.81;;;23.04;21.14
65359;BME280;52491;45.900;6.346;2023-01-27T09:13:02;93406.69;;;23.03;21.20
65359;BME280;52491;45.900;6.346;2023-01-27T09:15:28;93406.94;;;23.01;21.41
65359;BME280;52491;45.900;6.346;2023-01-27T09:17:53;93406.13;;;23.01;21.36
65359;BME280;52491;45.900;6.346;2023-01-27T09:20:19;93408.81;;;23.01;21.48
65359;BME280;52491;45.900;6.346;2023-01-27T09:22:45;93408.25;;;22.99;21.38
65359;BME280;52491;45.900;6.346;2023-01-27T09:25:14;93407.72;;;23.02;21.46
65359;BME280;52491;45.900;6.346;2023-01-27T09:27:40;93409.06;;;23.05;21.53
65359;BME280;52491;45.900;6.346;2023-01-27T09:30:07;93398.97;;;23.07;21.39
65359;BME280;52491;45.900;6.346;2023-01-27T09:32:32;93398.44;;;22.99;21.74
65359;BME280;52491;45.900;6.346;2023-01-27T09:34:58;93399.50;;;22.98;21.69
65359;BME280;52491;45.900;6.346;2023-01-27T09:37:24;93399.50;;;22.98;21.75
65359;BME280;52491;45.900;6.346;2023-01-27T09:39:54;93399.25;;;23.00;21.75
65359;BME280;52491;45.900;6.346;2023-01-27T09:45:23;93404.81;;;22.98;21.87
65359;BME280;52491;45.900;6.346;2023-01-27T09:48:01;93400.03;;;22.95;22.14
65359;BME280;52491;45.900;6.346;2023-01-27T09:50:38;93402.69;;;22.95;22.10
65359;BME280;52491;45.900;6.346;2023-01-27T10:06:36;93413.28;;;22.90;22.50
65359;BME280;52491;45.900;6.346;2023-01-27T10:09:08;93417.53;;;22.91;22.38
65359;BME280;52491;45.900;6.346;2023-01-27T10:12:50;93407.44;;;22.93;22.09
65359;BME280;52491;45.900;6.346;2023-01-27T10:21:27;93400.78;;;22.91;22.26
65359;BME280;52491;45.900;6.346;2023-01-27T10:26:40;93402.63;;;22.90;22.26
65359;BME280;52491;45.900;6.346;2023-01-27T10:32:18;93398.16;;;22.96;22.49
65359;BME280;52491;45.900;6.346;2023-01-27T10:40:46;93408.78;;;22.96;22.14
65359;BME280;52491;45.900;6.346;2023-01-27T10:43:29;93406.38;;;22.94;22.51
65359;BME280;52491;45.900;6.346;2023-01-27T10:48:50;93415.72;;;22.97;22.71
65359;BME280;52491;45.900;6.346;2023-01-27T10:51:32;93406.44;;;22.99;22.43
65359;BME280;52491;45.900;6.346;2023-01-27T10:54:36;93398.69;;;22.98;22.64
65359;BME280;52491;45.900;6.346;2023-01-27T10:57:15;93390.41;;;22.79;20.60
65359;BME280;52491;45.900;6.346;2023-01-27T11:03:05;93384.00;;;22.60;21.47
65359;BME280;52491;45.900;6.346;2023-01-27T11:05:40;93381.63;;;22.63;21.68
65359;BME280;52491;45.900;6.346;2023-01-27T11:08:18;93382.69;;;22.67;21.75
65359;BME280;52491;45.900;6.346;2023-01-27T11:10:52;93392.78;;;22.70;22.10
65359;BME280;52491;45.900;6.346;2023-01-27T11:13:36;93390.91;;;22.71;22.10
65359;BME280;52491;45.900;6.346;2023-01-27T11:16:04;93384.56;;;22.72;22.06
65359;BME280;52491;45.900;6.346;2023-01-27T11:18:35;93378.19;;;22.73;22.16
65359;BME280;52491;45.900;6.346;2023-01-27T11:21:06;93385.91;;;22.74;22.13
65359;BME280;52491;45.900;6.346;2023-01-27T11:23:39;93390.94;;;22.76;22.08
65359;BME280;52491;45.900;6.346;2023-01-27T11:29:09;93377.94;;;22.74;22.21
65359;BME280;52491;45.900;6.346;2023-01-27T11:32:17;93389.34;;;22.75;22.16
65359;BME280;52491;45.900;6.346;2023-01-27T11:37:28;93380.03;;;22.72;22.33
65359;BME280;52491;45.900;6.346;2023-01-27T11:39:55;93378.47;;;22.71;22.15
65359;BME280;52491;45.900;6.346;2023-01-27T11:42:20;93372.88;;;22.73;22.28
65359;BME280;52491;45.900;6.346;2023-01-27T11:44:50;93380.59;;;22.74;22.25
65359;BME280;52491;45.900;6.346;2023-01-27T11:47:23;93385.06;;;22.74;22.25
65359;BME280;52491;45.900;6.346;2023-01-27T11:49:52;93375.81;;;22.71;22.34
65359;BME280;52491;45.900;6.346;2023-01-27T11:52:21;93379.75;;;22.74;22.10
65359;BME280;52491;45.900;6.346;2023-01-27T11:55:09;93376.06;;;22.75;21.90
65359;BME280;52491;45.900;6.346;2023-01-27T11:57:45;93372.34;;;22.76;22.19
65359;BME280;52491;45.900;6.346;2023-01-27T12:00:23;93365.97;;;22.77;22.07
65359;BME280;52491;45.900;6.346;2023-01-27T12:03:02;93358.78;;;22.77;22.27
65359;BME280;52491;45.900;6.346;2023-01-27T12:05:33;93359.06;;;22.81;22.14
65359;BME280;52491;45.900;6.346;2023-01-27T12:08:04;93357.47;;;22.80;22.35
65359;BME280;52491;45.900;6.346;2023-01-27T12:10:38;93356.66;;;22.85;22.08
65359;BME280;52491;45.900;6.346;2023-01-27T12:13:16;93349.22;;;22.82;21.97
65359;BME280;52491;45.900;6.346;2023-01-27T12:15:54;93350.28;;;22.81;22.49
65359;BME280;52491;45.900;6.346;2023-01-27T12:18:20;93346.31;;;22.78;22.66
65359;BME280;52491;45.900;6.346;2023-01-27T12:21:08;93344.69;;;22.82;22.69
65359;BME280;52491;45.900;6.346;2023-01-27T12:23:51;93352.97;;;22.86;22.46
65359;BME280;52491;45.900;6.346;2023-01-27T12:26:32;93342.84;;;22.88;22.45
65359;BME280;52491;45.900;6.346;2023-01-27T12:29:05;93342.31;;;22.91;22.42
65359;BME280;52491;45.900;6.346;2023-01-27T12:31:47;93344.72;;;22.92;22.63
65359;BME280;52491;45.900;6.346;2023-01-27T12:34:26;93339.38;;;22.92;22.34
65359;BME280;52491;45.900;6.346;2023-01-27T12:36:54;93337.25;;;22.89;22.12
65359;BME280;52491;45.900;6.346;2023-01-27T12:39:40;93329.28;;;22.89;22.19
65359;BME280;52491;45.900;6.346;2023-01-27T12:42:37;93342.03;;;22.87;22.49
65359;BME280;52491;45.900;6.346;2023-01-27T12:45:30;93342.59;;;22.89;22.71
65359;BME280;52491;45.900;6.346;2023-01-27T12:50:36;93352.69;;;22.87;22.67
65359;BME280;52491;45.900;6.346;2023-01-27T12:53:04;93355.63;;;22.86;22.76
65359;BME280;52491;45.900;6.346;2023-01-27T12:55:37;93346.03;;;22.85;22.90
65359;BME280;52491;45.900;6.346;2023-01-27T12:58:04;93342.31;;;22.81;22.51
65359;BME280;52491;45.900;6.346;2023-01-27T13:00:30;93343.09;;;22.81;22.57
65359;BME280;52491;45.900;6.346;2023-01-27T13:03:04;93348.44;;;22.81;22.53
65359;BME280;52491;45.900;6.346;2023-01-27T13:05:35;93342.31;;;22.81;22.86
65359;BME280;52491;45.900;6.346;2023-01-27T13:08:02;93349.75;;;22.78;22.76
65359;BME280;52491;45.900;6.346;2023-01-27T13:10:27;93354.81;;;22.80;22.68
65359;BME280;52491;45.900;6.346;2023-01-27T13:12:56;93347.63;;;22.81;22.57
65359;BME280;52491;45.900;6.346;2023-01-27T13:15:25;93355.31;;;22.82;22.99
65359;BME280;52491;45.900;6.346;2023-01-27T13:17:54;93351.34;;;22.79;22.76
65359;BME280;52491;45.900;6.346;2023-01-27T13:23:20;93352.16;;;22.80;22.74
65359;BME280;52491;45.900;6.346;2023-01-27T13:31:04;93360.38;;;22.78;22.65
65359;BME280;52491;45.900;6.346;2023-01-27T13:33:42;93347.88;;;22.79;22.72
65359;BME280;52491;45.900;6.346;2023-01-27T13:36:34;93359.59;;;22.78;22.72
65359;BME280;52491;45.900;6.346;2023-01-27T13:39:32;93362.25;;;22.78;22.61
65359;BME280;52491;45.900;6.346;2023-01-27T13:45:02;93370.22;;;22.78;22.47
65359;BME280;52491;45.900;6.346;2023-01-27T13:47:38;93361.16;;;22.79;22.53
65359;BME280;52491;45.900;6.346;2023-01-27T13:50:23;93354.28;;;22.78;22.60
65359;BME280;52491;45.900;6.346;2023-01-27T13:52:55;93357.72;;;22.78;22.62
65359;BME280;52491;45.900;6.346;2023-01-27T13:58:04;93360.38;;;22.78;22.74
65359;BME280;52491;45.900;6.346;2023-01-27T14:06:20;93362.25;;;22.78;22.77
65359;BME280;52491;45.900;6.346;2023-01-27T14:09:00;93359.59;;;22.78;22.64
65359;BME280;52491;45.900;6.346;2023-01-27T14:11:54;93364.63;;;22.79;22.52
65359;BME280;52491;45.900;6.346;2023-01-27T14:14:49;93372.09;;;22.83;22.67
65359;BME280;52491;45.900;6.346;2023-01-27T14:20:41;93366.78;;;22.83;22.43
65359;BME280;52491;45.900;6.346;2023-01-27T14:23:49;93367.56;;;22.83;22.58
65359;BME280;52491;45.900;6.346;2023-01-27T14:31:28;93371.28;;;22.82;22.50
65359;BME280;52491;45.900;6.346;2023-01-27T14:37:00;93379.78;;;22.84;22.85
65359;BME280;52491;45.900;6.346;2023-01-27T14:39:53;93387.50;;;22.86;22.61
65359;BME280;52491;45.900;6.346;2023-01-27T14:45:21;93382.97;;;22.86;22.84
65359;BME280;52491;45.900;6.346;2023-01-27T14:47:58;93382.16;;;22.91;22.38
65359;BME280;52491;45.900;6.346;2023-01-27T14:50:57;93381.38;;;22.90;22.75
65359;BME280;52491;45.900;6.346;2023-01-27T14:56:08;93389.88;;;22.87;22.42
65359;BME280;52491;45.900;6.346;2023-01-27T14:58:39;93389.63;;;22.84;22.62